sensor_id;sensor_type;location;lat;lon;timestamp;P1;durP1;ratioP1;P2;durP2;ratioP2
72611;SDS011;60655;52.182;4.474;2023-03-23T00:01:49;7.50;;;3.05;;
72611;SDS011;60655;52.182;4.474;2023-03-23T00:03:51;7.50;;;3.00;;
72611;SDS011;60655;52.182;4.474;2023-03-23T00:05:53;7.72;;;2.85;;
72611;SDS011;60655;52.182;4.474;2023-03-23T00:07:59;9.93;;;2.72;;
72611;SDS011;60655;52.182;4.474;2023-03-23T00:10:02;7.70;;;2.70;;
72611;SDS011;60655;52.182;4.474;2023-03-23T00:12:04;8.68;;;2.70;;
72611;SDS011;60655;52.182;4.474;2023-03-23T00:14:05;7.75;;;2.33;;
72611;SDS011;60655;52.182;4.474;2023-03-23T00:16:06;7.10;;;2.30;;
72611;SDS011;60655;52.182;4.474;2023-03-23T00:18:18;7.80;;;2.60;;
72611;SDS011;60655;52.182;4.474;2023-03-23T00:20:22;7.03;;;2.10;;
72611;SDS011;60655;52.182;4.474;2023-03-23T00:22:24;6.10;;;2.22;;
72611;SDS011;60655;52.182;4.474;2023-03-23T00:24:25;5.72;;;2.00;;
72611;SDS011;60655;52.182;4.474;2023-03-23T00:26:26;6.22;;;1.98;;
72611;SDS011;60655;52.182;4.474;2023-03-23T00:28:29;8.27;;;2.33;;
72611;SDS011;60655;52.182;4.474;2023-03-23T00:30:31;6.55;;;1.98;;
72611;SDS011;60655;52.182;4.474;2023-03-23T00:32:32;8.85;;;2.50;;
72611;SDS011;60655;52.182;4.474;2023-03-23T00:34:32;7.40;;;2.63;;
72611;SDS011;60655;52.182;4.474;2023-03-23T00:36:35;7.13;;;2.00;;
72611;SDS011;60655;52.182;4.474;2023-03-23T00:38:43;7.07;;;2.08;;
72611;SDS011;60655;52.182;4.474;2023-03-23T00:40:44;9.32;;;2.75;;
72611;SDS011;60655;52.182;4.474;2023-03-23T00:42:47;10.80;;;2.65;;
72611;SDS011;60655;52.182;4.474;2023-03-23T00:44:49;9.00;;;2.10;;
72611;SDS011;60655;52.182;4.474;2023-03-23T00:46:50;6.18;;;2.13;;
72611;SDS011;60655;52.182;4.474;2023-03-23T00:48:51;7.10;;;2.28;;
72611;SDS011;60655;52.182;4.474;2023-03-23T00:50:52;8.25;;;2.20;;
72611;SDS011;60655;52.182;4.474;2023-03-23T00:52:53;8.50;;;2.35;;
72611;SDS011;60655;52.182;4.474;2023-03-23T00:54:57;6.15;;;2.00;;
72611;SDS011;60655;52.182;4.474;2023-03-23T00:56:58;6.32;;;1.60;;
72611;SDS011;60655;52.182;4.474;2023-03-23T00:58:59;7.47;;;2.00;;
72611;SDS011;60655;52.182;4.474;2023-03-23T01:00:59;8.68;;;2.05;;
72611;SDS011;60655;52.182;4.474;2023-03-23T01:03:01;8.52;;;2.50;;
72611;SDS011;60655;52.182;4.474;2023-03-23T01:05:02;8.13;;;1.92;;
72611;SDS011;60655;52.182;4.474;2023-03-23T01:07:03;5.38;;;2.00;;
72611;SDS011;60655;52.182;4.474;2023-03-23T01:09:08;6.28;;;2.40;;
72611;SDS011;60655;52.182;4.474;2023-03-23T01:11:13;7.97;;;2.15;;
72611;SDS011;60655;52.182;4.474;2023-03-23T01:13:15;8.95;;;2.38;;
72611;SDS011;60655;52.182;4.474;2023-03-23T01:15:16;9.18;;;2.17;;
72611;SDS011;60655;52.182;4.474;2023-03-23T01:17:18;7.90;;;1.90;;
72611;SDS011;60655;52.182;4.474;2023-03-23T01:19:20;5.25;;;1.60;;
72611;SDS011;60655;52.182;4.474;2023-03-23T01:21:21;5.97;;;1.92;;
72611;SDS011;60655;52.182;4.474;2023-03-23T01:23:22;6.85;;;1.98;;
72611;SDS011;60655;52.182;4.474;2023-03-23T01:25:23;5.35;;;1.88;;
72611;SDS011;60655;52.182;4.474;2023-03-23T01:27:24;5.50;;;1.63;;
72611;SDS011;60655;52.182;4.474;2023-03-23T01:29:25;6.75;;;1.90;;
72611;SDS011;60655;52.182;4.474;2023-03-23T01:31:26;7.50;;;2.13;;
72611;SDS011;60655;52.182;4.474;2023-03-23T01:33:27;7.22;;;1.95;;
72611;SDS011;60655;52.182;4.474;2023-03-23T01:35:29;6.50;;;2.28;;
72611;SDS011;60655;52.182;4.474;2023-03-23T01:37:30;5.75;;;1.83;;
72611;SDS011;60655;52.182;4.474;2023-03-23T01:39:31;4.10;;;1.55;;
72611;SDS011;60655;52.182;4.474;2023-03-23T01:41:32;5.30;;;1.70;;
72611;SDS011;60655;52.182;4.474;2023-03-23T01:43:34;5.28;;;1.80;;
72611;SDS011;60655;52.182;4.474;2023-03-23T01:45:35;8.00;;;1.83;;
72611;SDS011;60655;52.182;4.474;2023-03-23T01:47:37;5.43;;;1.73;;
72611;SDS011;60655;52.182;4.474;2023-03-23T01:49:40;5.22;;;1.90;;
72611;SDS011;60655;52.182;4.474;2023-03-23T01:51:51;7.65;;;1.85;;
72611;SDS011;60655;52.182;4.474;2023-03-23T01:53:57;5.10;;;1.80;;
72611;SDS011;60655;52.182;4.474;2023-03-23T01:56:02;7.05;;;1.90;;
72611;SDS011;60655;52.182;4.474;2023-03-23T01:58:04;5.25;;;1.60;;
72611;SDS011;60655;52.182;4.474;2023-03-23T02:00:07;6.07;;;1.48;;
72611;SDS011;60655;52.182;4.474;2023-03-23T02:02:15;4.82;;;1.67;;
72611;SDS011;60655;52.182;4.474;2023-03-23T02:04:17;5.43;;;1.85;;
72611;SDS011;60655;52.182;4.474;2023-03-23T02:06:19;5.35;;;2.00;;
72611;SDS011;60655;52.182;4.474;2023-03-23T02:08:20;7.35;;;1.70;;
72611;SDS011;60655;52.182;4.474;2023-03-23T02:10:23;5.95;;;1.92;;
72611;SDS011;60655;52.182;4.474;2023-03-23T02:12:24;8.75;;;1.77;;
72611;SDS011;60655;52.182;4.474;2023-03-23T02:14:25;5.35;;;1.73;;
72611;SDS011;60655;52.182;4.474;2023-03-23T02:16:31;6.72;;;1.83;;
72611;SDS011;60655;52.182;4.474;2023-03-23T02:19:10;7.25;;;2.00;;
72611;SDS011;60655;52.182;4.474;2023-03-23T02:24:30;6.55;;;1.80;;
72611;SDS011;60655;52.182;4.474;2023-03-23T02:26:04;6.00;;;1.67;;
72611;SDS011;60655;52.182;4.474;2023-03-23T02:33:57;6.85;;;1.90;;
72611;SDS011;60655;52.182;4.474;2023-03-23T02:36:05;6.45;;;1.67;;
72611;SDS011;60655;52.182;4.474;2023-03-23T02:38:17;7.00;;;1.95;;
72611;SDS011;60655;52.182;4.474;2023-03-23T02:40:25;4.22;;;1.40;;
72611;SDS011;60655;52.182;4.474;2023-03-23T02:42:32;6.82;;;2.00;;
72611;SDS011;60655;52.182;4.474;2023-03-23T02:44:38;6.15;;;1.58;;
72611;SDS011;60655;52.182;4.474;2023-03-23T02:46:43;6.55;;;1.95;;
72611;SDS011;60655;52.182;4.474;2023-03-23T02:48:45;7.10;;;1.85;;
72611;SDS011;60655;52.182;4.474;2023-03-23T02:50:51;6.63;;;1.77;;
72611;SDS011;60655;52.182;4.474;2023-03-23T02:52:53;5.15;;;1.30;;
72611;SDS011;60655;52.182;4.474;2023-03-23T02:54:57;8.85;;;1.63;;
72611;SDS011;60655;52.182;4.474;2023-03-23T02:57:00;10.70;;;2.00;;
72611;SDS011;60655;52.182;4.474;2023-03-23T02:59:03;7.40;;;1.67;;
72611;SDS011;60655;52.182;4.474;2023-03-23T03:01:15;5.75;;;1.83;;
72611;SDS011;60655;52.182;4.474;2023-03-23T03:03:37;7.57;;;1.70;;
72611;SDS011;60655;52.182;4.474;2023-03-23T03:05:57;7.32;;;1.83;;
72611;SDS011;60655;52.182;4.474;2023-03-23T03:08:14;8.02;;;2.00;;
72611;SDS011;60655;52.182;4.474;2023-03-23T03:10:28;7.88;;;1.70;;
72611;SDS011;60655;52.182;4.474;2023-03-23T03:12:36;10.13;;;2.03;;
72611;SDS011;60655;52.182;4.474;2023-03-23T03:17:23;6.78;;;1.60;;
72611;SDS011;60655;52.182;4.474;2023-03-23T03:19:26;7.53;;;1.70;;
72611;SDS011;60655;52.182;4.474;2023-03-23T03:21:39;8.23;;;2.20;;
72611;SDS011;60655;52.182;4.474;2023-03-23T03:23:45;9.02;;;1.95;;
72611;SDS011;60655;52.182;4.474;2023-03-23T03:25:49;5.50;;;1.42;;
72611;SDS011;60655;52.182;4.474;2023-03-23T03:27:51;6.35;;;1.70;;
72611;SDS011;60655;52.182;4.474;2023-03-23T03:29:54;11.15;;;1.40;;
72611;SDS011;60655;52.182;4.474;2023-03-23T03:31:59;5.85;;;1.50;;
72611;SDS011;60655;52.182;4.474;2023-03-23T03:34:06;6.10;;;1.38;;
72611;SDS011;60655;52.182;4.474;2023-03-23T03:36:07;8.20;;;1.60;;
72611;SDS011;60655;52.182;4.474;2023-03-23T03:38:16;8.15;;;1.48;;
72611;SDS011;60655;52.182;4.474;2023-03-23T03:40:18;5.57;;;1.50;;
72611;SDS011;60655;52.182;4.474;2023-03-23T03:42:21;9.30;;;1.70;;
72611;SDS011;60655;52.182;4.474;2023-03-23T03:44:22;11.15;;;1.83;;
72611;SDS011;60655;52.182;4.474;2023-03-23T03:46:23;8.93;;;1.40;;
72611;SDS011;60655;52.182;4.474;2023-03-23T03:48:27;12.57;;;1.75;;
72611;SDS011;60655;52.182;4.474;2023-03-23T03:50:28;10.02;;;1.60;;
72611;SDS011;60655;52.182;4.474;2023-03-23T03:52:29;6.40;;;1.67;;
72611;SDS011;60655;52.182;4.474;2023-03-23T03:54:30;7.72;;;1.77;;
72611;SDS011;60655;52.182;4.474;2023-03-23T03:56:31;9.02;;;2.10;;
72611;SDS011;60655;52.182;4.474;2023-03-23T03:58:35;6.82;;;1.95;;
72611;SDS011;60655;52.182;4.474;2023-03-23T04:00:36;9.95;;;1.92;;
72611;SDS011;60655;52.182;4.474;2023-03-23T04:02:37;10.15;;;2.05;;
72611;SDS011;60655;52.182;4.474;2023-03-23T04:04:38;10.10;;;2.20;;
72611;SDS011;60655;52.182;4.474;2023-03-23T04:06:42;11.00;;;2.10;;
72611;SDS011;60655;52.182;4.474;2023-03-23T04:08:43;6.70;;;2.05;;
72611;SDS011;60655;52.182;4.474;2023-03-23T04:10:45;8.32;;;2.38;;
72611;SDS011;60655;52.182;4.474;2023-03-23T04:12:48;11.48;;;2.08;;
72611;SDS011;60655;52.182;4.474;2023-03-23T04:14:50;11.15;;;1.85;;
72611;SDS011;60655;52.182;4.474;2023-03-23T04:16:51;10.07;;;2.03;;
72611;SDS011;60655;52.182;4.474;2023-03-23T04:18:57;11.45;;;2.08;;
72611;SDS011;60655;52.182;4.474;2023-03-23T04:20:58;8.65;;;1.58;;
72611;SDS011;60655;52.182;4.474;2023-03-23T04:23:00;8.98;;;1.50;;
72611;SDS011;60655;52.182;4.474;2023-03-23T04:25:02;11.68;;;1.92;;
72611;SDS011;60655;52.182;4.474;2023-03-23T04:27:06;14.15;;;2.33;;
72611;SDS011;60655;52.182;4.474;2023-03-23T04:29:10;10.93;;;1.73;;
72611;SDS011;60655;52.182;4.474;2023-03-23T04:31:13;15.18;;;2.25;;
72611;SDS011;60655;52.182;4.474;2023-03-23T04:33:15;10.88;;;1.77;;
72611;SDS011;60655;52.182;4.474;2023-03-23T04:35:17;11.05;;;2.10;;
72611;SDS011;60655;52.182;4.474;2023-03-23T04:37:19;15.60;;;2.08;;
72611;SDS011;60655;52.182;4.474;2023-03-23T04:39:20;15.57;;;2.20;;
72611;SDS011;60655;52.182;4.474;2023-03-23T04:41:22;17.30;;;2.28;;
72611;SDS011;60655;52.182;4.474;2023-03-23T04:43:25;15.18;;;2.17;;
72611;SDS011;60655;52.182;4.474;2023-03-23T04:45:26;11.95;;;1.98;;
72611;SDS011;60655;52.182;4.474;2023-03-23T04:47:26;16.27;;;2.42;;
72611;SDS011;60655;52.182;4.474;2023-03-23T04:49:30;13.90;;;2.40;;
72611;SDS011;60655;52.182;4.474;2023-03-23T04:51:31;10.50;;;1.85;;
72611;SDS011;60655;52.182;4.474;2023-03-23T04:53:32;12.52;;;2.38;;
72611;SDS011;60655;52.182;4.474;2023-03-23T04:55:34;19.08;;;3.22;;
72611;SDS011;60655;52.182;4.474;2023-03-23T04:57:39;12.23;;;2.00;;
72611;SDS011;60655;52.182;4.474;2023-03-23T04:59:41;16.85;;;2.20;;
72611;SDS011;60655;52.182;4.474;2023-03-23T05:01:42;13.23;;;2.35;;
72611;SDS011;60655;52.182;4.474;2023-03-23T05:03:45;13.00;;;1.92;;
72611;SDS011;60655;52.182;4.474;2023-03-23T05:05:46;14.02;;;2.38;;
72611;SDS011;60655;52.182;4.474;2023-03-23T05:07:52;10.60;;;2.00;;
72611;SDS011;60655;52.182;4.474;2023-03-23T05:09:53;19.92;;;2.28;;
72611;SDS011;60655;52.182;4.474;2023-03-23T05:11:54;16.35;;;2.00;;
72611;SDS011;60655;52.182;4.474;2023-03-23T05:13:55;17.48;;;2.53;;
72611;SDS011;60655;52.182;4.474;2023-03-23T05:15:56;20.30;;;2.38;;
72611;SDS011;60655;52.182;4.474;2023-03-23T05:17:57;22.08;;;2.88;;
72611;SDS011;60655;52.182;4.474;2023-03-23T05:19:58;15.23;;;2.70;;
72611;SDS011;60655;52.182;4.474;2023-03-23T05:21:59;17.38;;;2.60;;
72611;SDS011;60655;52.182;4.474;2023-03-23T05:24:03;23.10;;;2.55;;
72611;SDS011;60655;52.182;4.474;2023-03-23T05:26:04;21.83;;;2.30;;
72611;SDS011;60655;52.182;4.474;2023-03-23T05:28:07;14.70;;;2.53;;
72611;SDS011;60655;52.182;4.474;2023-03-23T05:30:12;18.92;;;1.88;;
72611;SDS011;60655;52.182;4.474;2023-03-23T05:32:16;18.42;;;2.58;;
72611;SDS011;60655;52.182;4.474;2023-03-23T05:34:17;18.52;;;2.47;;
72611;SDS011;60655;52.182;4.474;2023-03-23T05:36:18;10.60;;;1.92;;
72611;SDS011;60655;52.182;4.474;2023-03-23T05:38:19;20.70;;;2.67;;
72611;SDS011;60655;52.182;4.474;2023-03-23T05:40:20;16.73;;;2.33;;
72611;SDS011;60655;52.182;4.474;2023-03-23T05:42:21;19.63;;;2.28;;
72611;SDS011;60655;52.182;4.474;2023-03-23T05:44:23;14.45;;;2.20;;
72611;SDS011;60655;52.182;4.474;2023-03-23T05:46:24;17.35;;;2.90;;
72611;SDS011;60655;52.182;4.474;2023-03-23T05:48:25;20.35;;;2.65;;
72611;SDS011;60655;52.182;4.474;2023-03-23T05:50:26;20.85;;;2.60;;
72611;SDS011;60655;52.182;4.474;2023-03-23T05:52:28;27.38;;;3.20;;
72611;SDS011;60655;52.182;4.474;2023-03-23T05:54:29;18.27;;;2.50;;
72611;SDS011;60655;52.182;4.474;2023-03-23T05:56:30;15.50;;;2.83;;
72611;SDS011;60655;52.182;4.474;2023-03-23T05:58:31;19.75;;;2.42;;
72611;SDS011;60655;52.182;4.474;2023-03-23T06:00:33;20.85;;;3.05;;
72611;SDS011;60655;52.182;4.474;2023-03-23T06:02:35;21.00;;;2.50;;
72611;SDS011;60655;52.182;4.474;2023-03-23T06:04:36;19.08;;;2.78;;
72611;SDS011;60655;52.182;4.474;2023-03-23T06:06:38;19.55;;;2.70;;
72611;SDS011;60655;52.182;4.474;2023-03-23T06:08:41;18.88;;;2.90;;
72611;SDS011;60655;52.182;4.474;2023-03-23T06:10:43;21.35;;;2.85;;
72611;SDS011;60655;52.182;4.474;2023-03-23T06:12:44;26.38;;;3.05;;
72611;SDS011;60655;52.182;4.474;2023-03-23T06:14:46;21.30;;;3.22;;
72611;SDS011;60655;52.182;4.474;2023-03-23T06:16:48;17.90;;;2.20;;
72611;SDS011;60655;52.182;4.474;2023-03-23T06:18:49;21.33;;;2.47;;
72611;SDS011;60655;52.182;4.474;2023-03-23T06:20:50;18.73;;;2.85;;
72611;SDS011;60655;52.182;4.474;2023-03-23T06:22:51;29.98;;;2.72;;
72611;SDS011;60655;52.182;4.474;2023-03-23T06:24:52;19.70;;;2.40;;
72611;SDS011;60655;52.182;4.474;2023-03-23T06:26:53;20.58;;;2.78;;
72611;SDS011;60655;52.182;4.474;2023-03-23T06:28:54;24.40;;;2.97;;
72611;SDS011;60655;52.182;4.474;2023-03-23T06:30:58;23.88;;;3.55;;
72611;SDS011;60655;52.182;4.474;2023-03-23T06:33:00;21.30;;;2.50;;
72611;SDS011;60655;52.182;4.474;2023-03-23T06:35:02;23.17;;;2.33;;
72611;SDS011;60655;52.182;4.474;2023-03-23T06:37:04;16.73;;;2.08;;
72611;SDS011;60655;52.182;4.474;2023-03-23T06:39:05;22.20;;;2.28;;
72611;SDS011;60655;52.182;4.474;2023-03-23T06:41:07;20.02;;;2.42;;
72611;SDS011;60655;52.182;4.474;2023-03-23T06:43:09;20.02;;;2.63;;
72611;SDS011;60655;52.182;4.474;2023-03-23T06:45:10;12.90;;;2.50;;
72611;SDS011;60655;52.182;4.474;2023-03-23T06:47:11;23.02;;;3.22;;
72611;SDS011;60655;52.182;4.474;2023-03-23T06:49:12;16.77;;;2.13;;
72611;SDS011;60655;52.182;4.474;2023-03-23T06:51:13;23.42;;;3.17;;
72611;SDS011;60655;52.182;4.474;2023-03-23T06:53:14;11.60;;;2.20;;
72611;SDS011;60655;52.182;4.474;2023-03-23T06:55:16;17.55;;;2.55;;
72611;SDS011;60655;52.182;4.474;2023-03-23T06:57:18;18.80;;;2.63;;
72611;SDS011;60655;52.182;4.474;2023-03-23T06:59:20;20.88;;;2.75;;
72611;SDS011;60655;52.182;4.474;2023-03-23T07:01:21;13.40;;;1.83;;
72611;SDS011;60655;52.182;4.474;2023-03-23T07:03:22;19.25;;;2.45;;
72611;SDS011;60655;52.182;4.474;2023-03-23T07:05:23;14.00;;;2.00;;
72611;SDS011;60655;52.182;4.474;2023-03-23T07:07:25;18.75;;;2.63;;
72611;SDS011;60655;52.182;4.474;2023-03-23T07:09:26;14.48;;;2.13;;
72611;SDS011;60655;52.182;4.474;2023-03-23T07:11:27;19.35;;;2.35;;
72611;SDS011;60655;52.182;4.474;2023-03-23T07:13:28;16.58;;;2.10;;
72611;SDS011;60655;52.182;4.474;2023-03-23T07:15:30;23.58;;;2.47;;
72611;SDS011;60655;52.182;4.474;2023-03-23T07:17:31;22.42;;;2.88;;
72611;SDS011;60655;52.182;4.474;2023-03-23T07:19:32;13.60;;;2.72;;
72611;SDS011;60655;52.182;4.474;2023-03-23T07:21:33;16.45;;;2.90;;
72611;SDS011;60655;52.182;4.474;2023-03-23T07:23:34;21.50;;;2.75;;
72611;SDS011;60655;52.182;4.474;2023-03-23T07:25:35;15.68;;;2.20;;
72611;SDS011;60655;52.182;4.474;2023-03-23T07:27:36;20.50;;;2.58;;
72611;SDS011;60655;52.182;4.474;2023-03-23T07:29:38;20.48;;;2.58;;
72611;SDS011;60655;52.182;4.474;2023-03-23T07:31:39;19.60;;;2.60;;
72611;SDS011;60655;52.182;4.474;2023-03-23T07:33:40;17.58;;;2.15;;
72611;SDS011;60655;52.182;4.474;2023-03-23T07:35:41;14.52;;;2.35;;
72611;SDS011;60655;52.182;4.474;2023-03-23T07:37:42;14.63;;;2.35;;
72611;SDS011;60655;52.182;4.474;2023-03-23T07:39:43;12.98;;;2.10;;
72611;SDS011;60655;52.182;4.474;2023-03-23T07:41:44;10.45;;;2.13;;
72611;SDS011;60655;52.182;4.474;2023-03-23T07:43:45;14.95;;;1.90;;
72611;SDS011;60655;52.182;4.474;2023-03-23T07:45:46;13.35;;;1.92;;
72611;SDS011;60655;52.182;4.474;2023-03-23T07:47:47;13.23;;;2.28;;
72611;SDS011;60655;52.182;4.474;2023-03-23T07:49:48;15.98;;;2.30;;
72611;SDS011;60655;52.182;4.474;2023-03-23T07:51:49;18.33;;;2.95;;
72611;SDS011;60655;52.182;4.474;2023-03-23T07:53:50;11.82;;;1.70;;
72611;SDS011;60655;52.182;4.474;2023-03-23T07:55:52;9.73;;;1.70;;
72611;SDS011;60655;52.182;4.474;2023-03-23T07:57:54;12.05;;;1.92;;
72611;SDS011;60655;52.182;4.474;2023-03-23T07:59:55;12.10;;;2.35;;
72611;SDS011;60655;52.182;4.474;2023-03-23T08:01:57;16.00;;;1.90;;
72611;SDS011;60655;52.182;4.474;2023-03-23T08:03:58;13.90;;;2.30;;
72611;SDS011;60655;52.182;4.474;2023-03-23T08:06:00;12.68;;;1.75;;
72611;SDS011;60655;52.182;4.474;2023-03-23T08:08:01;9.52;;;1.67;;
72611;SDS011;60655;52.182;4.474;2023-03-23T08:10:02;18.52;;;2.72;;
72611;SDS011;60655;52.182;4.474;2023-03-23T08:12:04;14.02;;;1.55;;
72611;SDS011;60655;52.182;4.474;2023-03-23T08:14:05;10.32;;;1.70;;
72611;SDS011;60655;52.182;4.474;2023-03-23T08:16:06;11.77;;;1.90;;
72611;SDS011;60655;52.182;4.474;2023-03-23T08:18:10;11.00;;;1.75;;
72611;SDS011;60655;52.182;4.474;2023-03-23T08:20:11;14.43;;;2.15;;
72611;SDS011;60655;52.182;4.474;2023-03-23T08:22:13;19.80;;;2.17;;
72611;SDS011;60655;52.182;4.474;2023-03-23T08:24:15;14.65;;;2.22;;
72611;SDS011;60655;52.182;4.474;2023-03-23T08:26:16;15.93;;;2.00;;
72611;SDS011;60655;52.182;4.474;2023-03-23T08:28:17;14.48;;;2.03;;
72611;SDS011;60655;52.182;4.474;2023-03-23T08:30:19;10.77;;;2.30;;
72611;SDS011;60655;52.182;4.474;2023-03-23T08:32:22;10.15;;;1.90;;
72611;SDS011;60655;52.182;4.474;2023-03-23T08:34:24;14.82;;;1.70;;
72611;SDS011;60655;52.182;4.474;2023-03-23T08:36:26;11.88;;;1.88;;
72611;SDS011;60655;52.182;4.474;2023-03-23T08:38:28;13.55;;;2.10;;
72611;SDS011;60655;52.182;4.474;2023-03-23T08:40:29;16.00;;;2.10;;
72611;SDS011;60655;52.182;4.474;2023-03-23T08:42:30;16.38;;;2.00;;
72611;SDS011;60655;52.182;4.474;2023-03-23T08:44:31;14.88;;;2.20;;
72611;SDS011;60655;52.182;4.474;2023-03-23T08:46:32;14.70;;;2.03;;
72611;SDS011;60655;52.182;4.474;2023-03-23T08:48:33;19.25;;;3.78;;
72611;SDS011;60655;52.182;4.474;2023-03-23T08:50:35;14.68;;;1.95;;
72611;SDS011;60655;52.182;4.474;2023-03-23T08:52:37;15.98;;;2.42;;
72611;SDS011;60655;52.182;4.474;2023-03-23T08:54:38;16.42;;;2.13;;
72611;SDS011;60655;52.182;4.474;2023-03-23T08:56:39;12.13;;;1.92;;
72611;SDS011;60655;52.182;4.474;2023-03-23T08:58:40;22.10;;;2.45;;
72611;SDS011;60655;52.182;4.474;2023-03-23T09:00:41;17.25;;;1.98;;
72611;SDS011;60655;52.182;4.474;2023-03-23T09:02:42;18.52;;;2.10;;
72611;SDS011;60655;52.182;4.474;2023-03-23T09:04:48;14.50;;;2.08;;
72611;SDS011;60655;52.182;4.474;2023-03-23T09:06:49;20.00;;;2.10;;
72611;SDS011;60655;52.182;4.474;2023-03-23T09:08:51;14.50;;;1.80;;
72611;SDS011;60655;52.182;4.474;2023-03-23T09:10:53;12.00;;;1.52;;
72611;SDS011;60655;52.182;4.474;2023-03-23T09:12:54;9.30;;;1.45;;
72611;SDS011;60655;52.182;4.474;2023-03-23T09:14:55;17.45;;;2.08;;
72611;SDS011;60655;52.182;4.474;2023-03-23T09:16:57;12.85;;;1.70;;
72611;SDS011;60655;52.182;4.474;2023-03-23T09:18:58;12.80;;;1.92;;
72611;SDS011;60655;52.182;4.474;2023-03-23T09:21:00;16.23;;;1.85;;
72611;SDS011;60655;52.182;4.474;2023-03-23T09:23:02;13.95;;;2.53;;
72611;SDS011;60655;52.182;4.474;2023-03-23T09:25:04;12.52;;;1.80;;
72611;SDS011;60655;52.182;4.474;2023-03-23T09:27:05;16.23;;;2.08;;
72611;SDS011;60655;52.182;4.474;2023-03-23T09:29:06;11.55;;;1.67;;
72611;SDS011;60655;52.182;4.474;2023-03-23T09:31:07;12.05;;;1.80;;
72611;SDS011;60655;52.182;4.474;2023-03-23T09:33:08;16.42;;;2.20;;
72611;SDS011;60655;52.182;4.474;2023-03-23T09:35:09;16.75;;;2.20;;
72611;SDS011;60655;52.182;4.474;2023-03-23T09:37:12;16.30;;;2.25;;
72611;SDS011;60655;52.182;4.474;2023-03-23T09:39:14;18.42;;;2.72;;
72611;SDS011;60655;52.182;4.474;2023-03-23T09:48:14;15.20;;;2.65;;
72611;SDS011;60655;52.182;4.474;2023-03-23T09:50:39;16.60;;;2.20;;
72611;SDS011;60655;52.182;4.474;2023-03-23T09:52:58;14.38;;;1.90;;
72611;SDS011;60655;52.182;4.474;2023-03-23T09:55:02;14.35;;;2.13;;
72611;SDS011;60655;52.182;4.474;2023-03-23T09:57:05;14.57;;;2.20;;
72611;SDS011;60655;52.182;4.474;2023-03-23T09:59:19;15.32;;;1.92;;
72611;SDS011;60655;52.182;4.474;2023-03-23T10:01:31;22.70;;;2.80;;
72611;SDS011;60655;52.182;4.474;2023-03-23T10:03:39;12.20;;;1.90;;
72611;SDS011;60655;52.182;4.474;2023-03-23T10:05:42;16.13;;;2.17;;
72611;SDS011;60655;52.182;4.474;2023-03-23T10:07:46;13.35;;;2.45;;
72611;SDS011;60655;52.182;4.474;2023-03-23T10:09:48;17.02;;;2.35;;
72611;SDS011;60655;52.182;4.474;2023-03-23T10:14:07;15.57;;;2.85;;
72611;SDS011;60655;52.182;4.474;2023-03-23T10:16:27;20.35;;;2.75;;
72611;SDS011;60655;52.182;4.474;2023-03-23T10:18:36;13.30;;;2.10;;
72611;SDS011;60655;52.182;4.474;2023-03-23T10:20:59;13.52;;;2.33;;
72611;SDS011;60655;52.182;4.474;2023-03-23T10:23:05;19.77;;;1.98;;
72611;SDS011;60655;52.182;4.474;2023-03-23T10:27:19;12.98;;;2.35;;
72611;SDS011;60655;52.182;4.474;2023-03-23T10:31:40;16.13;;;2.20;;
72611;SDS011;60655;52.182;4.474;2023-03-23T10:33:47;17.75;;;2.35;;
72611;SDS011;60655;52.182;4.474;2023-03-23T10:38:26;20.13;;;2.17;;
72611;SDS011;60655;52.182;4.474;2023-03-23T10:40:43;14.25;;;2.30;;
72611;SDS011;60655;52.182;4.474;2023-03-23T10:42:48;18.98;;;2.45;;
72611;SDS011;60655;52.182;4.474;2023-03-23T10:44:50;18.30;;;2.63;;
72611;SDS011;60655;52.182;4.474;2023-03-23T10:47:00;17.67;;;2.22;;
72611;SDS011;60655;52.182;4.474;2023-03-23T10:49:06;16.90;;;2.20;;
72611;SDS011;60655;52.182;4.474;2023-03-23T10:51:12;22.80;;;2.53;;
72611;SDS011;60655;52.182;4.474;2023-03-23T10:53:19;15.82;;;2.35;;
72611;SDS011;60655;52.182;4.474;2023-03-23T10:55:36;14.40;;;1.95;;
72611;SDS011;60655;52.182;4.474;2023-03-23T10:57:44;12.90;;;2.20;;
72611;SDS011;60655;52.182;4.474;2023-03-23T10:59:47;17.83;;;2.45;;
72611;SDS011;60655;52.182;4.474;2023-03-23T11:01:50;19.13;;;2.50;;
72611;SDS011;60655;52.182;4.474;2023-03-23T11:03:52;14.23;;;1.95;;
72611;SDS011;60655;52.182;4.474;2023-03-23T11:05:57;17.80;;;2.47;;
72611;SDS011;60655;52.182;4.474;2023-03-23T11:08:01;15.25;;;2.15;;
72611;SDS011;60655;52.182;4.474;2023-03-23T11:10:07;14.93;;;2.40;;
72611;SDS011;60655;52.182;4.474;2023-03-23T11:12:18;15.48;;;2.47;;
72611;SDS011;60655;52.182;4.474;2023-03-23T11:14:28;16.67;;;2.60;;
72611;SDS011;60655;52.182;4.474;2023-03-23T11:16:30;15.50;;;2.03;;
72611;SDS011;60655;52.182;4.474;2023-03-23T11:18:36;15.35;;;2.53;;
72611;SDS011;60655;52.182;4.474;2023-03-23T11:20:42;12.35;;;2.17;;
72611;SDS011;60655;52.182;4.474;2023-03-23T11:22:45;19.98;;;2.08;;
72611;SDS011;60655;52.182;4.474;2023-03-23T11:24:50;12.40;;;1.98;;
72611;SDS011;60655;52.182;4.474;2023-03-23T11:26:55;14.52;;;2.33;;
72611;SDS011;60655;52.182;4.474;2023-03-23T11:29:01;16.60;;;2.90;;
72611;SDS011;60655;52.182;4.474;2023-03-23T11:31:06;17.98;;;2.30;;
72611;SDS011;60655;52.182;4.474;2023-03-23T11:33:07;15.32;;;2.35;;
72611;SDS011;60655;52.182;4.474;2023-03-23T11:35:15;19.63;;;2.75;;
72611;SDS011;60655;52.182;4.474;2023-03-23T11:37:33;10.70;;;1.90;;
72611;SDS011;60655;52.182;4.474;2023-03-23T11:41:47;15.20;;;2.03;;
72611;SDS011;60655;52.182;4.474;2023-03-23T11:43:50;16.88;;;2.60;;
72611;SDS011;60655;52.182;4.474;2023-03-23T11:45:58;17.65;;;2.42;;
72611;SDS011;60655;52.182;4.474;2023-03-23T11:55:28;8.45;;;1.45;;
72611;SDS011;60655;52.182;4.474;2023-03-23T11:57:54;12.75;;;1.58;;
72611;SDS011;60655;52.182;4.474;2023-03-23T12:00:00;12.30;;;1.67;;
72611;SDS011;60655;52.182;4.474;2023-03-23T12:11:05;12.05;;;1.73;;
72611;SDS011;60655;52.182;4.474;2023-03-23T12:13:21;12.20;;;1.80;;
72611;SDS011;60655;52.182;4.474;2023-03-23T12:15:38;12.93;;;2.13;;
72611;SDS011;60655;52.182;4.474;2023-03-23T12:20:20;14.43;;;2.00;;
72611;SDS011;60655;52.182;4.474;2023-03-23T12:22:42;12.70;;;2.00;;
72611;SDS011;60655;52.182;4.474;2023-03-23T12:27:23;14.82;;;1.75;;
72611;SDS011;60655;52.182;4.474;2023-03-23T12:34:35;18.17;;;2.13;;
72611;SDS011;60655;52.182;4.474;2023-03-23T12:36:45;16.88;;;2.15;;
72611;SDS011;60655;52.182;4.474;2023-03-23T12:39:08;11.10;;;2.03;;
72611;SDS011;60655;52.182;4.474;2023-03-23T12:43:26;17.55;;;2.10;;
72611;SDS011;60655;52.182;4.474;2023-03-23T12:48:06;16.42;;;2.58;;
72611;SDS011;60655;52.182;4.474;2023-03-23T12:52:21;12.15;;;2.25;;
72611;SDS011;60655;52.182;4.474;2023-03-23T12:54:29;25.38;;;3.03;;
72611;SDS011;60655;52.182;4.474;2023-03-23T12:56:33;21.50;;;2.88;;
72611;SDS011;60655;52.182;4.474;2023-03-23T12:58:39;15.70;;;2.72;;
72611;SDS011;60655;52.182;4.474;2023-03-23T13:00:59;11.23;;;1.40;;
72611;SDS011;60655;52.182;4.474;2023-03-23T13:03:06;12.43;;;1.90;;
72611;SDS011;60655;52.182;4.474;2023-03-23T13:07:26;10.85;;;1.73;;
72611;SDS011;60655;52.182;4.474;2023-03-23T13:09:36;10.05;;;1.70;;
72611;SDS011;60655;52.182;4.474;2023-03-23T13:12:13;11.35;;;2.03;;
72611;SDS011;60655;52.182;4.474;2023-03-23T13:14:21;12.55;;;1.42;;
72611;SDS011;60655;52.182;4.474;2023-03-23T13:16:32;13.75;;;1.83;;
72611;SDS011;60655;52.182;4.474;2023-03-23T13:26:02;16.10;;;2.22;;
72611;SDS011;60655;52.182;4.474;2023-03-23T13:28:12;22.40;;;2.03;;
72611;SDS011;60655;52.182;4.474;2023-03-23T13:30:19;13.88;;;2.15;;
72611;SDS011;60655;52.182;4.474;2023-03-23T13:32:30;17.38;;;2.22;;